sensor_id;sensor_type;location;lat;lon;timestamp;P1;durP1;ratioP1;P2;durP2;ratioP2
74967;SDS011;63523;51.880;12.630;2023-03-31T00:01:29;5.43;;;0.73;;
74967;SDS011;63523;51.880;12.630;2023-03-31T00:03:58;4.50;;;0.52;;
74967;SDS011;63523;51.880;12.630;2023-03-31T00:06:33;4.38;;;0.68;;
74967;SDS011;63523;51.880;12.630;2023-03-31T00:09:07;5.82;;;0.68;;
74967;SDS011;63523;51.880;12.630;2023-03-31T00:11:38;5.57;;;0.70;;
74967;SDS011;63523;51.880;12.630;2023-03-31T00:14:04;6.33;;;0.57;;
74967;SDS011;63523;51.880;12.630;2023-03-31T00:16:32;4.22;;;0.60;;
74967;SDS011;63523;51.880;12.630;2023-03-31T00:18:58;3.03;;;0.52;;
74967;SDS011;63523;51.880;12.630;2023-03-31T00:21:26;3.83;;;0.45;;
74967;SDS011;63523;51.880;12.630;2023-03-31T00:24:07;3.38;;;0.60;;
74967;SDS011;63523;51.880;12.630;2023-03-31T00:26:35;2.40;;;0.30;;
74967;SDS011;63523;51.880;12.630;2023-03-31T00:29:01;4.03;;;0.43;;
74967;SDS011;63523;51.880;12.630;2023-03-31T00:31:28;2.60;;;0.40;;
74967;SDS011;63523;51.880;12.630;2023-03-31T00:33:54;4.88;;;0.60;;
74967;SDS011;63523;51.880;12.630;2023-03-31T00:36:20;4.35;;;0.70;;
74967;SDS011;63523;51.880;12.630;2023-03-31T00:38:51;3.83;;;0.30;;
74967;SDS011;63523;51.880;12.630;2023-03-31T00:41:17;2.22;;;0.40;;
74967;SDS011;63523;51.880;12.630;2023-03-31T00:44:04;5.32;;;0.50;;
74967;SDS011;63523;51.880;12.630;2023-03-31T00:49:04;4.80;;;0.43;;
74967;SDS011;63523;51.880;12.630;2023-03-31T00:51:38;2.50;;;0.50;;
74967;SDS011;63523;51.880;12.630;2023-03-31T00:54:05;5.05;;;0.32;;
74967;SDS011;63523;51.880;12.630;2023-03-31T00:56:33;3.15;;;0.50;;
74967;SDS011;63523;51.880;12.630;2023-03-31T00:59:01;3.33;;;0.33;;
74967;SDS011;63523;51.880;12.630;2023-03-31T01:01:32;4.35;;;0.40;;
74967;SDS011;63523;51.880;12.630;2023-03-31T01:03:59;3.17;;;0.30;;
74967;SDS011;63523;51.880;12.630;2023-03-31T01:06:26;4.65;;;0.30;;
74967;SDS011;63523;51.880;12.630;2023-03-31T01:08:55;4.05;;;0.40;;
74967;SDS011;63523;51.880;12.630;2023-03-31T01:11:22;2.90;;;0.30;;
74967;SDS011;63523;51.880;12.630;2023-03-31T01:13:50;2.90;;;0.50;;
74967;SDS011;63523;51.880;12.630;2023-03-31T01:16:20;2.78;;;0.32;;
74967;SDS011;63523;51.880;12.630;2023-03-31T01:18:46;3.45;;;0.45;;
74967;SDS011;63523;51.880;12.630;2023-03-31T01:24:05;2.83;;;0.33;;
74967;SDS011;63523;51.880;12.630;2023-03-31T01:26:55;2.10;;;0.40;;
74967;SDS011;63523;51.880;12.630;2023-03-31T01:29:40;2.08;;;0.30;;
74967;SDS011;63523;51.880;12.630;2023-03-31T01:32:44;2.75;;;0.40;;
74967;SDS011;63523;51.880;12.630;2023-03-31T01:35:32;4.57;;;0.30;;
74967;SDS011;63523;51.880;12.630;2023-03-31T01:49:46;3.38;;;0.50;;
74967;SDS011;63523;51.880;12.630;2023-03-31T01:52:23;2.63;;;0.50;;
74967;SDS011;63523;51.880;12.630;2023-03-31T01:55:05;5.05;;;0.60;;
74967;SDS011;63523;51.880;12.630;2023-03-31T01:57:39;3.10;;;0.50;;
74967;SDS011;63523;51.880;12.630;2023-03-31T02:00:09;4.90;;;0.40;;
74967;SDS011;63523;51.880;12.630;2023-03-31T02:05:23;4.57;;;0.60;;
74967;SDS011;63523;51.880;12.630;2023-03-31T02:10:22;6.07;;;0.68;;
74967;SDS011;63523;51.880;12.630;2023-03-31T02:12:51;4.47;;;0.50;;
74967;SDS011;63523;51.880;12.630;2023-03-31T02:15:25;4.47;;;0.77;;
74967;SDS011;63523;51.880;12.630;2023-03-31T02:17:55;6.87;;;0.80;;
74967;SDS011;63523;51.880;12.630;2023-03-31T02:20:24;6.15;;;0.80;;
74967;SDS011;63523;51.880;12.630;2023-03-31T02:22:53;6.32;;;0.95;;
74967;SDS011;63523;51.880;12.630;2023-03-31T02:25:28;3.50;;;0.80;;
74967;SDS011;63523;51.880;12.630;2023-03-31T02:28:01;3.92;;;0.50;;
74967;SDS011;63523;51.880;12.630;2023-03-31T02:30:37;3.13;;;1.00;;
74967;SDS011;63523;51.880;12.630;2023-03-31T02:33:10;4.22;;;0.70;;
74967;SDS011;63523;51.880;12.630;2023-03-31T02:35:35;10.03;;;0.80;;
74967;SDS011;63523;51.880;12.630;2023-03-31T02:38:01;4.80;;;0.75;;
74967;SDS011;63523;51.880;12.630;2023-03-31T02:40:27;3.70;;;0.50;;
74967;SDS011;63523;51.880;12.630;2023-03-31T02:42:54;3.67;;;0.63;;
74967;SDS011;63523;51.880;12.630;2023-03-31T02:48:24;3.92;;;0.68;;
74967;SDS011;63523;51.880;12.630;2023-03-31T03:01:51;5.32;;;0.95;;
74967;SDS011;63523;51.880;12.630;2023-03-31T03:04:37;2.88;;;0.47;;
74967;SDS011;63523;51.880;12.630;2023-03-31T03:10:05;3.77;;;0.40;;
74967;SDS011;63523;51.880;12.630;2023-03-31T03:15:47;3.25;;;0.50;;
74967;SDS011;63523;51.880;12.630;2023-03-31T03:18:18;3.67;;;0.50;;
74967;SDS011;63523;51.880;12.630;2023-03-31T03:20:43;2.43;;;0.50;;
74967;SDS011;63523;51.880;12.630;2023-03-31T03:23:14;3.75;;;0.45;;
74967;SDS011;63523;51.880;12.630;2023-03-31T03:25:40;5.63;;;0.55;;
74967;SDS011;63523;51.880;12.630;2023-03-31T03:28:06;2.87;;;0.33;;
74967;SDS011;63523;51.880;12.630;2023-03-31T03:30:32;4.90;;;0.40;;
74967;SDS011;63523;51.880;12.630;2023-03-31T03:32:57;4.47;;;0.70;;
74967;SDS011;63523;51.880;12.630;2023-03-31T03:35:23;5.90;;;0.50;;
74967;SDS011;63523;51.880;12.630;2023-03-31T03:37:48;4.70;;;0.70;;
74967;SDS011;63523;51.880;12.630;2023-03-31T03:40:17;3.42;;;0.60;;
74967;SDS011;63523;51.880;12.630;2023-03-31T03:42:45;5.53;;;1.00;;
74967;SDS011;63523;51.880;12.630;2023-03-31T03:45:11;6.55;;;0.80;;
74967;SDS011;63523;51.880;12.630;2023-03-31T03:47:36;5.13;;;1.07;;
74967;SDS011;63523;51.880;12.630;2023-03-31T03:50:02;3.63;;;1.03;;
74967;SDS011;63523;51.880;12.630;2023-03-31T03:52:28;4.43;;;0.90;;
74967;SDS011;63523;51.880;12.630;2023-03-31T03:54:54;6.30;;;1.00;;
74967;SDS011;63523;51.880;12.630;2023-03-31T03:57:20;4.00;;;0.63;;
74967;SDS011;63523;51.880;12.630;2023-03-31T03:59:45;5.10;;;1.08;;
74967;SDS011;63523;51.880;12.630;2023-03-31T04:02:11;10.60;;;1.87;;
74967;SDS011;63523;51.880;12.630;2023-03-31T04:04:36;8.33;;;1.63;;
74967;SDS011;63523;51.880;12.630;2023-03-31T04:07:01;6.15;;;1.13;;
74967;SDS011;63523;51.880;12.630;2023-03-31T04:09:27;4.70;;;1.03;;
74967;SDS011;63523;51.880;12.630;2023-03-31T04:11:52;4.63;;;0.70;;
74967;SDS011;63523;51.880;12.630;2023-03-31T04:14:18;4.70;;;0.87;;
74967;SDS011;63523;51.880;12.630;2023-03-31T04:16:43;4.68;;;0.82;;
74967;SDS011;63523;51.880;12.630;2023-03-31T04:19:14;5.43;;;0.70;;
74967;SDS011;63523;51.880;12.630;2023-03-31T04:21:43;4.07;;;0.80;;
74967;SDS011;63523;51.880;12.630;2023-03-31T04:24:14;6.55;;;0.82;;
74967;SDS011;63523;51.880;12.630;2023-03-31T04:26:45;6.45;;;0.90;;
74967;SDS011;63523;51.880;12.630;2023-03-31T04:29:14;5.45;;;0.90;;
74967;SDS011;63523;51.880;12.630;2023-03-31T04:31:40;5.67;;;1.33;;
74967;SDS011;63523;51.880;12.630;2023-03-31T04:34:10;5.75;;;0.60;;
74967;SDS011;63523;51.880;12.630;2023-03-31T04:36:44;5.43;;;0.82;;
74967;SDS011;63523;51.880;12.630;2023-03-31T04:39:15;5.20;;;0.93;;
74967;SDS011;63523;51.880;12.630;2023-03-31T04:41:42;7.78;;;0.98;;
74967;SDS011;63523;51.880;12.630;2023-03-31T04:44:08;3.83;;;0.73;;
74967;SDS011;63523;51.880;12.630;2023-03-31T04:46:34;5.10;;;0.85;;
74967;SDS011;63523;51.880;12.630;2023-03-31T04:49:00;6.43;;;1.10;;
74967;SDS011;63523;51.880;12.630;2023-03-31T04:51:26;5.27;;;1.20;;
74967;SDS011;63523;51.880;12.630;2023-03-31T04:53:52;5.18;;;0.90;;
74967;SDS011;63523;51.880;12.630;2023-03-31T04:56:18;6.23;;;1.10;;
74967;SDS011;63523;51.880;12.630;2023-03-31T04:58:43;4.00;;;0.97;;
74967;SDS011;63523;51.880;12.630;2023-03-31T05:01:09;3.93;;;0.77;;
74967;SDS011;63523;51.880;12.630;2023-03-31T05:03:37;6.00;;;0.88;;
74967;SDS011;63523;51.880;12.630;2023-03-31T05:06:03;6.75;;;1.65;;
74967;SDS011;63523;51.880;12.630;2023-03-31T05:08:29;4.10;;;0.82;;
74967;SDS011;63523;51.880;12.630;2023-03-31T05:10:55;5.27;;;1.17;;
74967;SDS011;63523;51.880;12.630;2023-03-31T05:13:21;5.30;;;1.00;;
74967;SDS011;63523;51.880;12.630;2023-03-31T05:15:47;4.70;;;1.47;;
74967;SDS011;63523;51.880;12.630;2023-03-31T05:18:15;5.50;;;1.20;;
74967;SDS011;63523;51.880;12.630;2023-03-31T05:20:40;6.05;;;1.38;;
74967;SDS011;63523;51.880;12.630;2023-03-31T05:23:06;8.07;;;1.30;;
74967;SDS011;63523;51.880;12.630;2023-03-31T05:25:32;4.75;;;1.08;;
74967;SDS011;63523;51.880;12.630;2023-03-31T05:27:58;5.57;;;1.13;;
74967;SDS011;63523;51.880;12.630;2023-03-31T05:30:25;4.40;;;1.00;;
74967;SDS011;63523;51.880;12.630;2023-03-31T05:32:54;6.47;;;1.40;;
74967;SDS011;63523;51.880;12.630;2023-03-31T05:35:20;7.47;;;1.40;;
74967;SDS011;63523;51.880;12.630;2023-03-31T05:37:45;5.25;;;1.27;;
74967;SDS011;63523;51.880;12.630;2023-03-31T05:40:11;4.33;;;1.07;;
74967;SDS011;63523;51.880;12.630;2023-03-31T05:42:37;4.43;;;1.02;;
74967;SDS011;63523;51.880;12.630;2023-03-31T05:45:03;5.70;;;0.93;;
74967;SDS011;63523;51.880;12.630;2023-03-31T05:47:29;6.65;;;1.17;;
74967;SDS011;63523;51.880;12.630;2023-03-31T05:49:54;6.17;;;1.10;;
74967;SDS011;63523;51.880;12.630;2023-03-31T05:52:20;3.90;;;1.10;;
74967;SDS011;63523;51.880;12.630;2023-03-31T05:54:46;4.07;;;1.00;;
74967;SDS011;63523;51.880;12.630;2023-03-31T05:57:11;5.33;;;1.30;;
74967;SDS011;63523;51.880;12.630;2023-03-31T05:59:37;6.55;;;1.27;;
74967;SDS011;63523;51.880;12.630;2023-03-31T06:02:02;8.60;;;1.10;;
74967;SDS011;63523;51.880;12.630;2023-03-31T06:04:28;6.00;;;1.17;;
74967;SDS011;63523;51.880;12.630;2023-03-31T06:06:56;4.22;;;0.90;;
74967;SDS011;63523;51.880;12.630;2023-03-31T06:09:22;7.53;;;1.30;;
74967;SDS011;63523;51.880;12.630;2023-03-31T06:11:48;4.55;;;1.05;;
74967;SDS011;63523;51.880;12.630;2023-03-31T06:14:14;6.10;;;1.17;;
74967;SDS011;63523;51.880;12.630;2023-03-31T06:16:39;5.60;;;1.20;;
74967;SDS011;63523;51.880;12.630;2023-03-31T06:19:05;4.57;;;0.97;;
74967;SDS011;63523;51.880;12.630;2023-03-31T06:21:31;4.40;;;0.90;;
74967;SDS011;63523;51.880;12.630;2023-03-31T06:23:56;6.20;;;0.97;;
74967;SDS011;63523;51.880;12.630;2023-03-31T06:26:24;4.65;;;0.90;;
74967;SDS011;63523;51.880;12.630;2023-03-31T06:28:50;4.88;;;1.25;;
74967;SDS011;63523;51.880;12.630;2023-03-31T06:31:17;7.73;;;1.40;;
74967;SDS011;63523;51.880;12.630;2023-03-31T06:33:44;6.22;;;1.60;;
74967;SDS011;63523;51.880;12.630;2023-03-31T06:36:14;7.88;;;1.80;;
74967;SDS011;63523;51.880;12.630;2023-03-31T06:38:41;7.03;;;1.20;;
74967;SDS011;63523;51.880;12.630;2023-03-31T06:41:08;5.28;;;0.60;;
74967;SDS011;63523;51.880;12.630;2023-03-31T06:43:36;4.07;;;0.53;;
74967;SDS011;63523;51.880;12.630;2023-03-31T06:46:01;5.60;;;0.50;;
74967;SDS011;63523;51.880;12.630;2023-03-31T06:48:27;5.17;;;0.70;;
74967;SDS011;63523;51.880;12.630;2023-03-31T06:50:53;5.65;;;0.75;;
74967;SDS011;63523;51.880;12.630;2023-03-31T06:53:19;4.38;;;0.60;;
74967;SDS011;63523;51.880;12.630;2023-03-31T06:55:46;5.10;;;0.40;;
74967;SDS011;63523;51.880;12.630;2023-03-31T06:58:11;4.63;;;0.50;;
74967;SDS011;63523;51.880;12.630;2023-03-31T07:00:37;4.07;;;0.40;;
74967;SDS011;63523;51.880;12.630;2023-03-31T07:03:03;3.07;;;0.57;;
74967;SDS011;63523;51.880;12.630;2023-03-31T07:05:29;4.47;;;0.75;;
74967;SDS011;63523;51.880;12.630;2023-03-31T07:07:55;5.70;;;0.60;;
74967;SDS011;63523;51.880;12.630;2023-03-31T07:10:23;5.38;;;0.43;;
74967;SDS011;63523;51.880;12.630;2023-03-31T07:12:50;2.97;;;0.50;;
74967;SDS011;63523;51.880;12.630;2023-03-31T07:15:16;4.32;;;0.60;;
74967;SDS011;63523;51.880;12.630;2023-03-31T07:17:42;4.33;;;0.50;;
74967;SDS011;63523;51.880;12.630;2023-03-31T07:20:08;5.80;;;0.80;;
74967;SDS011;63523;51.880;12.630;2023-03-31T07:22:39;5.88;;;0.70;;
74967;SDS011;63523;51.880;12.630;2023-03-31T07:25:08;4.43;;;0.57;;
74967;SDS011;63523;51.880;12.630;2023-03-31T07:27:35;4.05;;;0.55;;
74967;SDS011;63523;51.880;12.630;2023-03-31T07:30:03;3.33;;;0.50;;
74967;SDS011;63523;51.880;12.630;2023-03-31T07:32:30;6.90;;;0.88;;
74967;SDS011;63523;51.880;12.630;2023-03-31T07:34:57;3.70;;;0.80;;
74967;SDS011;63523;51.880;12.630;2023-03-31T07:37:22;4.60;;;0.50;;
74967;SDS011;63523;51.880;12.630;2023-03-31T07:39:48;5.68;;;0.63;;
74967;SDS011;63523;51.880;12.630;2023-03-31T07:42:14;5.97;;;0.53;;
74967;SDS011;63523;51.880;12.630;2023-03-31T07:44:39;5.10;;;0.60;;
74967;SDS011;63523;51.880;12.630;2023-03-31T07:47:05;4.75;;;0.45;;
74967;SDS011;63523;51.880;12.630;2023-03-31T07:49:31;2.27;;;0.40;;
74967;SDS011;63523;51.880;12.630;2023-03-31T07:51:57;3.13;;;0.50;;
74967;SDS011;63523;51.880;12.630;2023-03-31T07:54:23;3.77;;;0.40;;
74967;SDS011;63523;51.880;12.630;2023-03-31T07:56:49;3.22;;;0.50;;
74967;SDS011;63523;51.880;12.630;2023-03-31T07:59:14;6.37;;;0.70;;
74967;SDS011;63523;51.880;12.630;2023-03-31T08:01:40;4.53;;;0.50;;
74967;SDS011;63523;51.880;12.630;2023-03-31T08:04:05;5.03;;;0.40;;
74967;SDS011;63523;51.880;12.630;2023-03-31T08:06:31;5.67;;;0.53;;
74967;SDS011;63523;51.880;12.630;2023-03-31T08:08:57;3.97;;;0.40;;
74967;SDS011;63523;51.880;12.630;2023-03-31T08:11:23;3.47;;;0.60;;
74967;SDS011;63523;51.880;12.630;2023-03-31T08:13:49;5.33;;;0.40;;
74967;SDS011;63523;51.880;12.630;2023-03-31T08:16:15;3.90;;;0.50;;
74967;SDS011;63523;51.880;12.630;2023-03-31T08:18:41;4.43;;;0.43;;
74967;SDS011;63523;51.880;12.630;2023-03-31T08:21:07;4.40;;;0.37;;
74967;SDS011;63523;51.880;12.630;2023-03-31T08:23:36;5.05;;;0.60;;
74967;SDS011;63523;51.880;12.630;2023-03-31T08:28:34;5.15;;;0.52;;
74967;SDS011;63523;51.880;12.630;2023-03-31T08:31:04;3.77;;;0.40;;
74967;SDS011;63523;51.880;12.630;2023-03-31T08:33:30;4.65;;;0.55;;
74967;SDS011;63523;51.880;12.630;2023-03-31T08:35:56;4.20;;;0.67;;
74967;SDS011;63523;51.880;12.630;2023-03-31T08:38:25;5.53;;;0.40;;
74967;SDS011;63523;51.880;12.630;2023-03-31T08:40:51;3.97;;;0.73;;
74967;SDS011;63523;51.880;12.630;2023-03-31T08:43:25;3.75;;;0.55;;
74967;SDS011;63523;51.880;12.630;2023-03-31T08:45:56;3.95;;;0.65;;
74967;SDS011;63523;51.880;12.630;2023-03-31T08:51:02;3.50;;;0.40;;
74967;SDS011;63523;51.880;12.630;2023-03-31T08:54:05;6.82;;;0.60;;
74967;SDS011;63523;51.880;12.630;2023-03-31T08:56:27;4.80;;;0.57;;
74967;SDS011;63523;51.880;12.630;2023-03-31T08:58:54;4.57;;;0.77;;
74967;SDS011;63523;51.880;12.630;2023-03-31T09:09:24;5.82;;;1.10;;
74967;SDS011;63523;51.880;12.630;2023-03-31T09:11:59;4.77;;;0.80;;
74967;SDS011;63523;51.880;12.630;2023-03-31T09:17:24;4.70;;;0.70;;
74967;SDS011;63523;51.880;12.630;2023-03-31T09:20:16;4.07;;;0.75;;
74967;SDS011;63523;51.880;12.630;2023-03-31T09:22:46;4.18;;;0.93;;
74967;SDS011;63523;51.880;12.630;2023-03-31T09:25:15;5.30;;;0.60;;
74967;SDS011;63523;51.880;12.630;2023-03-31T09:27:41;4.97;;;1.00;;
74967;SDS011;63523;51.880;12.630;2023-03-31T09:35:36;4.40;;;0.98;;
74967;SDS011;63523;51.880;12.630;2023-03-31T09:38:02;3.87;;;0.70;;
74967;SDS011;63523;51.880;12.630;2023-03-31T09:40:28;6.60;;;0.95;;
74967;SDS011;63523;51.880;12.630;2023-03-31T09:42:57;5.65;;;1.33;;
74967;SDS011;63523;51.880;12.630;2023-03-31T09:45:35;4.83;;;0.90;;
74967;SDS011;63523;51.880;12.630;2023-03-31T09:48:06;5.13;;;1.30;;
74967;SDS011;63523;51.880;12.630;2023-03-31T09:50:42;3.83;;;0.80;;
74967;SDS011;63523;51.880;12.630;2023-03-31T09:59:50;6.50;;;1.20;;
74967;SDS011;63523;51.880;12.630;2023-03-31T10:02:02;5.35;;;1.17;;
74967;SDS011;63523;51.880;12.630;2023-03-31T10:04:43;5.37;;;1.07;;
74967;SDS011;63523;51.880;12.630;2023-03-31T10:07:10;7.10;;;1.50;;
74967;SDS011;63523;51.880;12.630;2023-03-31T10:09:36;6.07;;;1.80;;
74967;SDS011;63523;51.880;12.630;2023-03-31T10:12:07;4.97;;;1.40;;
74967;SDS011;63523;51.880;12.630;2023-03-31T10:14:43;4.65;;;1.30;;
74967;SDS011;63523;51.880;12.630;2023-03-31T10:17:14;4.93;;;1.40;;
74967;SDS011;63523;51.880;12.630;2023-03-31T10:19:51;6.32;;;1.50;;
74967;SDS011;63523;51.880;12.630;2023-03-31T10:24:47;8.80;;;1.70;;
74967;SDS011;63523;51.880;12.630;2023-03-31T10:27:24;3.97;;;1.20;;
74967;SDS011;63523;51.880;12.630;2023-03-31T10:29:55;6.13;;;1.48;;
74967;SDS011;63523;51.880;12.630;2023-03-31T10:32:26;7.15;;;1.20;;
74967;SDS011;63523;51.880;12.630;2023-03-31T10:34:53;6.35;;;1.33;;
74967;SDS011;63523;51.880;12.630;2023-03-31T10:37:25;5.30;;;1.17;;
74967;SDS011;63523;51.880;12.630;2023-03-31T10:39:59;4.78;;;1.35;;
74967;SDS011;63523;51.880;12.630;2023-03-31T10:42:44;5.35;;;1.10;;
74967;SDS011;63523;51.880;12.630;2023-03-31T10:47:53;6.10;;;1.08;;
74967;SDS011;63523;51.880;12.630;2023-03-31T10:50:32;5.07;;;0.73;;
74967;SDS011;63523;51.880;12.630;2023-03-31T10:53:03;4.63;;;1.10;;
74967;SDS011;63523;51.880;12.630;2023-03-31T10:55:35;4.13;;;1.02;;
74967;SDS011;63523;51.880;12.630;2023-03-31T10:58:13;5.00;;;1.13;;
74967;SDS011;63523;51.880;12.630;2023-03-31T11:01:02;5.22;;;0.90;;
74967;SDS011;63523;51.880;12.630;2023-03-31T11:23:12;5.20;;;0.93;;
74967;SDS011;63523;51.880;12.630;2023-03-31T11:39:31;5.55;;;0.93;;
74967;SDS011;63523;51.880;12.630;2023-03-31T11:41:58;5.47;;;0.90;;
74967;SDS011;63523;51.880;12.630;2023-03-31T11:44:29;6.87;;;1.00;;
74967;SDS011;63523;51.880;12.630;2023-03-31T11:47:08;6.40;;;1.20;;
74967;SDS011;63523;51.880;12.630;2023-03-31T11:49:43;5.85;;;0.98;;
74967;SDS011;63523;51.880;12.630;2023-03-31T11:52:21;5.40;;;1.10;;
74967;SDS011;63523;51.880;12.630;2023-03-31T12:00:22;4.15;;;1.15;;
74967;SDS011;63523;51.880;12.630;2023-03-31T12:05:44;5.10;;;1.25;;
74967;SDS011;63523;51.880;12.630;2023-03-31T12:11:01;6.53;;;1.43;;
74967;SDS011;63523;51.880;12.630;2023-03-31T12:16:10;4.30;;;1.25;;
74967;SDS011;63523;51.880;12.630;2023-03-31T12:21:30;4.38;;;1.20;;
74967;SDS011;63523;51.880;12.630;2023-03-31T12:23:58;4.00;;;0.83;;
74967;SDS011;63523;51.880;12.630;2023-03-31T12:29:06;4.25;;;0.60;;
74967;SDS011;63523;51.880;12.630;2023-03-31T12:31:45;4.10;;;0.80;;
74967;SDS011;63523;51.880;12.630;2023-03-31T12:34:12;3.30;;;0.73;;
74967;SDS011;63523;51.880;12.630;2023-03-31T12:39:23;5.43;;;1.10;;
74967;SDS011;63523;51.880;12.630;2023-03-31T12:44:28;6.60;;;1.40;;
74967;SDS011;63523;51.880;12.630;2023-03-31T12:47:18;7.80;;;1.10;;
74967;SDS011;63523;51.880;12.630;2023-03-31T12:49:58;4.73;;;0.97;;
74967;SDS011;63523;51.880;12.630;2023-03-31T12:55:35;6.40;;;1.77;;
74967;SDS011;63523;51.880;12.630;2023-03-31T13:01:10;6.43;;;1.58;;
74967;SDS011;63523;51.880;12.630;2023-03-31T13:03:53;4.33;;;1.40;;
74967;SDS011;63523;51.880;12.630;2023-03-31T13:11:43;4.20;;;1.03;;
74967;SDS011;63523;51.880;12.630;2023-03-31T13:14:13;4.18;;;1.05;;
74967;SDS011;63523;51.880;12.630;2023-03-31T13:16:43;5.90;;;1.30;;
74967;SDS011;63523;51.880;12.630;2023-03-31T13:19:26;5.95;;;1.25;;
74967;SDS011;63523;51.880;12.630;2023-03-31T13:21:57;5.25;;;1.05;;
74967;SDS011;63523;51.880;12.630;2023-03-31T13:24:24;4.37;;;1.10;;
74967;SDS011;63523;51.880;12.630;2023-03-31T13:26:52;5.40;;;0.90;;
74967;SDS011;63523;51.880;12.630;2023-03-31T13:29:21;4.05;;;0.80;;
74967;SDS011;63523;51.880;12.630;2023-03-31T13:51:27;5.27;;;1.13;;
74967;SDS011;63523;51.880;12.630;2023-03-31T14:07:49;4.68;;;1.15;;
74967;SDS011;63523;51.880;12.630;2023-03-31T14:13:07;3.33;;;0.90;;
74967;SDS011;63523;51.880;12.630;2023-03-31T14:15:39;3.63;;;1.00;;
74967;SDS011;63523;51.880;12.630;2023-03-31T14:18:09;5.33;;;1.13;;
74967;SDS011;63523;51.880;12.630;2023-03-31T14:20:40;4.35;;;1.27;;
74967;SDS011;63523;51.880;12.630;2023-03-31T14:29:39;6.35;;;1.50;;
74967;SDS011;63523;51.880;12.630;2023-03-31T14:35:04;5.70;;;1.40;;
74967;SDS011;63523;51.880;12.630;2023-03-31T14:37:38;5.32;;;1.50;;
74967;SDS011;63523;51.880;12.630;2023-03-31T14:40:04;3.47;;;1.45;;
74967;SDS011;63523;51.880;12.630;2023-03-31T14:42:38;4.25;;;1.60;;
74967;SDS011;63523;51.880;12.630;2023-03-31T14:47:57;4.78;;;1.50;;
74967;SDS011;63523;51.880;12.630;2023-03-31T14:50:29;5.88;;;1.80;;
74967;SDS011;63523;51.880;12.630;2023-03-31T14:52:57;4.53;;;1.52;;
74967;SDS011;63523;51.880;12.630;2023-03-31T14:55:25;6.03;;;1.90;;
74967;SDS011;63523;51.880;12.630;2023-03-31T14:57:53;5.73;;;2.17;;
74967;SDS011;63523;51.880;12.630;2023-03-31T15:00:24;4.80;;;1.63;;
74967;SDS011;63523;51.880;12.630;2023-03-31T15:02:51;5.95;;;1.77;;
74967;SDS011;63523;51.880;12.630;2023-03-31T15:05:21;5.45;;;2.17;;
74967;SDS011;63523;51.880;12.630;2023-03-31T15:07:55;5.40;;;1.70;;
74967;SDS011;63523;51.880;12.630;2023-03-31T15:10:22;6.47;;;1.67;;
74967;SDS011;63523;51.880;12.630;2023-03-31T15:12:48;6.13;;;1.65;;
74967;SDS011;63523;51.880;12.630;2023-03-31T15:15:21;4.50;;;1.90;;
74967;SDS011;63523;51.880;12.630;2023-03-31T15:17:47;5.53;;;1.50;;
74967;SDS011;63523;51.880;12.630;2023-03-31T15:23:03;5.47;;;1.73;;
74967;SDS011;63523;51.880;12.630;2023-03-31T15:25:42;4.27;;;1.30;;
74967;SDS011;63523;51.880;12.630;2023-03-31T15:28:12;6.90;;;1.77;;
74967;SDS011;63523;51.880;12.630;2023-03-31T15:30:40;4.10;;;1.30;;
74967;SDS011;63523;51.880;12.630;2023-03-31T15:33:07;5.35;;;1.55;;
74967;SDS011;63523;51.880;12.630;2023-03-31T15:35:42;5.50;;;2.43;;
74967;SDS011;63523;51.880;12.630;2023-03-31T15:38:08;4.85;;;1.80;;
74967;SDS011;63523;51.880;12.630;2023-03-31T15:40:37;4.78;;;1.98;;
74967;SDS011;63523;51.880;12.630;2023-03-31T15:43:12;4.63;;;1.80;;
74967;SDS011;63523;51.880;12.630;2023-03-31T15:45:51;4.23;;;1.80;;
74967;SDS011;63523;51.880;12.630;2023-03-31T15:48:28;5.43;;;2.08;;
74967;SDS011;63523;51.880;12.630;2023-03-31T15:51:04;5.60;;;2.20;;
74967;SDS011;63523;51.880;12.630;2023-03-31T15:53:45;4.10;;;1.80;;
74967;SDS011;63523;51.880;12.630;2023-03-31T15:56:55;4.15;;;1.92;;
74967;SDS011;63523;51.880;12.630;2023-03-31T15:59:20;4.13;;;1.60;;
74967;SDS011;63523;51.880;12.630;2023-03-31T16:01:47;4.90;;;2.00;;
74967;SDS011;63523;51.880;12.630;2023-03-31T16:04:14;6.20;;;2.20;;
74967;SDS011;63523;51.880;12.630;2023-03-31T16:06:42;4.95;;;2.30;;
74967;SDS011;63523;51.880;12.630;2023-03-31T16:09:26;7.32;;;2.63;;
74967;SDS011;63523;51.880;12.630;2023-03-31T16:12:02;7.37;;;2.40;;
74967;SDS011;63523;51.880;12.630;2023-03-31T16:14:35;5.05;;;2.00;;
74967;SDS011;63523;51.880;12.630;2023-03-31T16:17:09;6.85;;;2.25;;
74967;SDS011;63523;51.880;12.630;2023-03-31T16:20:02;6.63;;;2.25;;
74967;SDS011;63523;51.880;12.630;2023-03-31T16:22:37;12.15;;;3.08;;
74967;SDS011;63523;51.880;12.630;2023-03-31T16:25:13;11.17;;;2.80;;
74967;SDS011;63523;51.880;12.630;2023-03-31T16:27:43;12.30;;;1.92;;
74967;SDS011;63523;51.880;12.630;2023-03-31T16:30:21;11.13;;;2.70;;
74967;SDS011;63523;51.880;12.630;2023-03-31T16:33:05;12.85;;;5.43;;
74967;SDS011;63523;51.880;12.630;2023-03-31T16:35:41;18.58;;;8.85;;
74967;SDS011;63523;51.880;12.630;2023-03-31T16:38:09;15.50;;;6.67;;
74967;SDS011;63523;51.880;12.630;2023-03-31T16:40:39;30.63;;;13.13;;
74967;SDS011;63523;51.880;12.630;2023-03-31T16:43:14;14.55;;;6.50;;
74967;SDS011;63523;51.880;12.630;2023-03-31T16:45:48;19.55;;;6.35;;
74967;SDS011;63523;51.880;12.630;2023-03-31T16:48:19;19.63;;;7.82;;
74967;SDS011;63523;51.880;12.630;2023-03-31T16:50:46;12.20;;;4.07;;
74967;SDS011;63523;51.880;12.630;2023-03-31T16:53:14;7.95;;;1.98;;
74967;SDS011;63523;51.880;12.630;2023-03-31T16:55:41;6.25;;;1.75;;
74967;SDS011;63523;51.880;12.630;2023-03-31T16:58:07;8.77;;;3.05;;
74967;SDS011;63523;51.880;12.630;2023-03-31T17:00:34;8.10;;;2.58;;
74967;SDS011;63523;51.880;12.630;2023-03-31T17:03:00;44.70;;;15.80;;
74967;SDS011;63523;51.880;12.630;2023-03-31T17:05:30;60.60;;;20.98;;
74967;SDS011;63523;51.880;12.630;2023-03-31T17:07:57;50.83;;;18.38;;
74967;SDS011;63523;51.880;12.630;2023-03-31T17:10:23;45.50;;;15.13;;
74967;SDS011;63523;51.880;12.630;2023-03-31T17:12:49;24.98;;;8.27;;
74967;SDS011;63523;51.880;12.630;2023-03-31T17:15:14;44.80;;;14.83;;
74967;SDS011;63523;51.880;12.630;2023-03-31T17:17:43;36.70;;;13.45;;
74967;SDS011;63523;51.880;12.630;2023-03-31T17:20:10;6.78;;;3.13;;
74967;SDS011;63523;51.880;12.630;2023-03-31T17:22:36;3.27;;;0.37;;
74967;SDS011;63523;51.880;12.630;2023-03-31T17:25:02;1.98;;;0.32;;
74967;SDS011;63523;51.880;12.630;2023-03-31T17:27:28;3.17;;;0.40;;
74967;SDS011;63523;51.880;12.630;2023-03-31T17:29:54;4.63;;;0.90;;
74967;SDS011;63523;51.880;12.630;2023-03-31T17:32:20;19.27;;;6.60;;
74967;SDS011;63523;51.880;12.630;2023-03-31T17:34:46;22.70;;;7.97;;
74967;SDS011;63523;51.880;12.630;2023-03-31T17:37:13;30.67;;;10.67;;
74967;SDS011;63523;51.880;12.630;2023-03-31T17:39:40;23.02;;;6.90;;
74967;SDS011;63523;51.880;12.630;2023-03-31T17:42:07;22.20;;;5.90;;
74967;SDS011;63523;51.880;12.630;2023-03-31T17:44:33;16.48;;;4.22;;
74967;SDS011;63523;51.880;12.630;2023-03-31T17:46:58;8.17;;;2.10;;
74967;SDS011;63523;51.880;12.630;2023-03-31T17:49:24;6.27;;;1.27;;
74967;SDS011;63523;51.880;12.630;2023-03-31T17:51:50;5.60;;;0.70;;
74967;SDS011;63523;51.880;12.630;2023-03-31T17:54:17;3.35;;;0.30;;
74967;SDS011;63523;51.880;12.630;2023-03-31T17:56:42;3.20;;;0.20;;
74967;SDS011;63523;51.880;12.630;2023-03-31T17:59:09;2.00;;;0.20;;
74967;SDS011;63523;51.880;12.630;2023-03-31T18:01:36;2.15;;;0.20;;
74967;SDS011;63523;51.880;12.630;2023-03-31T18:04:01;1.73;;;0.20;;